Time;durP1;ratioP1;P1;durP2;ratioP2;P2;SDS_P1;SDS_P2;PMS_P1;PMS_P2;Temp;Humidity;BMP_temperature;BMP_pressure;BME280_temperature;BME280_humidity;BME280_pressure;Samples;Min_cycle;Max_cycle;Signal;HPM_P1;HPM_P2
2024/03/25 00:01:54;;;;;;;53.70;33.15;;;;;;;29.46;83.78;101057.25;5032039;28;69270;-30
2024/03/25 00:04:23;;;;;;;54.70;33.05;;;;;;;29.49;84.78;101056.84;5026080;28;66423;-30
2024/03/25 00:06:53;;;;;;;48.65;32.58;;;;;;;29.59;86.15;101057.28;5026419;28;70791;-31
2024/03/25 00:09:22;;;;;;;49.67;31.77;;;;;;;29.60;86.05;101058.94;5026312;28;65691;-30
2024/03/25 00:11:56;;;;;;;39.05;29.17;;;;;;;29.65;85.57;101066.47;5015496;28;69821;-29
2024/03/25 00:14:25;;;;;;;41.58;27.95;;;;;;;29.72;88.00;101076.22;5023085;28;66436;-31
2024/03/25 00:16:54;;;;;;;36.08;26.00;;;;;;;29.74;86.01;101076.84;5017255;28;70042;-30
2024/03/25 00:19:23;;;;;;;38.05;25.20;;;;;;;29.78;88.28;101086.22;5031590;28;66379;-34
2024/03/25 00:21:52;;;;;;;35.50;22.67;;;;;;;29.80;88.40;101086.81;4995285;28;69731;-30
2024/03/25 00:24:21;;;;;;;33.22;21.35;;;;;;;29.89;88.80;101089.31;5020704;28;66008;-30
2024/03/25 00:26:50;;;;;;;36.00;21.13;;;;;;;29.88;89.06;101098.47;5032732;28;69784;-29
2024/03/25 00:29:19;;;;;;;21.80;18.67;;;;;;;29.94;88.65;101092.22;5021114;28;67115;-31
2024/03/25 00:31:48;;;;;;;26.15;18.88;;;;;;;29.98;89.19;101104.31;5025282;28;69409;-31
2024/03/25 00:34:17;;;;;;;24.15;18.75;;;;;;;29.99;88.09;101098.69;5043149;28;66664;-30
2024/03/25 00:36:46;;;;;;;21.67;17.92;;;;;;;30.06;89.29;101098.66;5010974;28;69512;-31
2024/03/25 00:39:16;;;;;;;24.88;18.17;;;;;;;30.10;89.99;101107.22;5006361;28;65788;-30
2024/03/25 00:41:44;;;;;;;26.77;18.40;;;;;;;30.13;89.99;101104.91;5037636;28;69665;-30
2024/03/25 00:44:14;;;;;;;23.10;17.05;;;;;;;30.05;90.12;101095.13;5020959;28;66217;-30
2024/03/25 00:46:42;;;;;;;23.80;16.77;;;;;;;30.16;90.21;101112.59;5021373;28;70433;-35
2024/03/25 00:49:12;;;;;;;24.23;18.13;;;;;;;30.20;90.69;101113.00;5024237;28;66424;-30
2024/03/25 00:51:41;;;;;;;23.77;16.40;;;;;;;30.23;89.33;101113.47;5027849;28;70404;-31
2024/03/25 00:54:10;;;;;;;25.60;16.52;;;;;;;30.27;91.24;101125.53;5035255;28;65565;-30
2024/03/25 00:56:39;;;;;;;23.45;16.10;;;;;;;30.27;88.28;101114.69;5017346;28;70259;-30
2024/03/25 00:59:08;;;;;;;17.10;14.77;;;;;;;30.34;87.82;101116.56;5020662;28;66263;-30
2024/03/25 01:01:37;;;;;;;23.75;15.95;;;;;;;30.38;87.58;101109.69;5029471;28;70395;-32
2024/03/25 01:04:07;;;;;;;23.95;16.38;;;;;;;30.43;87.04;101124.25;5035044;28;65942;-31
2024/03/25 01:06:36;;;;;;;17.85;14.73;;;;;;;30.45;86.52;101115.91;5041796;28;70733;-31
2024/03/25 01:09:07;;;;;;;22.65;14.57;;;;;;;30.46;86.73;101121.13;5021418;28;65563;-32
2024/03/25 01:11:36;;;;;;;22.17;14.82;;;;;;;30.50;85.96;101116.94;5029905;28;69806;-30
2024/03/25 01:14:05;;;;;;;18.92;14.90;;;;;;;30.50;86.41;101118.81;5011478;28;65703;-30
2024/03/25 01:16:34;;;;;;;18.00;13.63;;;;;;;30.50;86.01;101108.00;5014543;28;70360;-30
2024/03/25 01:19:03;;;;;;;16.83;14.23;;;;;;;30.53;85.27;101117.56;5020151;28;66580;-30
2024/03/25 01:21:32;;;;;;;17.85;13.73;;;;;;;30.48;85.67;101104.69;5021535;28;70034;-31
2024/03/25 01:24:01;;;;;;;17.42;13.57;;;;;;;30.55;85.69;101126.31;5021679;28;65815;-30
2024/03/25 01:26:30;;;;;;;14.68;13.18;;;;;;;30.57;85.32;101119.66;5033685;28;70350;-30
2024/03/25 01:28:59;;;;;;;15.15;13.48;;;;;;;30.57;85.01;101113.41;5022497;28;66572;-29
2024/03/25 01:31:28;;;;;;;14.02;12.40;;;;;;;30.60;85.20;101119.22;5033222;28;70694;-30
2024/03/25 01:33:57;;;;;;;14.40;12.88;;;;;;;30.64;84.52;101125.84;5031856;28;65367;-29
2024/03/25 01:36:27;;;;;;;15.57;13.02;;;;;;;30.57;84.67;101111.53;5040381;28;70555;-30
2024/03/25 01:38:55;;;;;;;16.48;12.85;;;;;;;30.65;84.66;101124.81;5021972;28;66654;-31
2024/03/25 01:41:25;;;;;;;16.10;13.05;;;;;;;30.69;84.18;101128.75;5033929;28;70131;-30
2024/03/25 01:43:54;;;;;;;13.80;12.43;;;;;;;30.72;83.87;101128.31;5023094;28;66945;-30
2024/03/25 01:46:23;;;;;;;16.90;13.05;;;;;;;30.74;84.26;101133.53;5054745;28;70552;-31
2024/03/25 01:48:53;;;;;;;14.07;12.63;;;;;;;30.77;84.13;101135.00;5054220;28;66352;-31
2024/03/25 01:51:23;;;;;;;12.82;11.63;;;;;;;30.78;83.94;101142.06;5037638;28;70745;-30
2024/03/25 01:53:55;;;;;;;15.75;12.82;;;;;;;30.84;83.65;101146.66;5037522;28;66753;-31
2024/03/25 01:56:25;;;;;;;12.90;11.65;;;;;;;30.81;83.41;101128.13;5019175;28;69529;-31
2024/03/25 01:58:54;;;;;;;15.10;11.75;;;;;;;30.88;83.48;101145.19;5026989;28;66026;-30
2024/03/25 02:01:23;;;;;;;11.68;10.60;;;;;;;30.90;83.28;101129.56;5038802;28;70268;-30
2024/03/25 02:03:54;;;;;;;13.27;11.98;;;;;;;30.86;82.92;101128.31;5054903;28;66078;-31
2024/03/25 02:06:27;;;;;;;13.07;11.38;;;;;;;30.75;83.38;101104.59;5039461;28;69546;-31
2024/03/25 02:08:58;;;;;;;12.48;11.27;;;;;;;30.92;83.09;101141.84;5021770;28;66482;-33
2024/03/25 02:11:28;;;;;;;12.18;11.02;;;;;;;30.93;82.91;101132.66;5014299;28;70158;-31
2024/03/25 02:13:57;;;;;;;12.48;11.23;;;;;;;31.02;82.70;101135.13;5033850;28;66756;-31
2024/03/25 02:16:26;;;;;;;12.48;11.20;;;;;;;31.04;82.48;101136.59;5039198;28;69676;-31
2024/03/25 02:18:55;;;;;;;12.23;11.05;;;;;;;31.08;82.34;101135.09;5002768;28;65689;-30
2024/03/25 02:21:24;;;;;;;13.80;11.38;;;;;;;30.99;82.19;101117.44;5013206;28;69403;-30
2024/03/25 02:23:56;;;;;;;11.27;10.18;;;;;;;31.09;82.14;101123.22;5002224;28;66779;-31
2024/03/25 02:26:25;;;;;;;12.15;11.02;;;;;;;31.19;82.11;101138.19;5030565;28;69374;-30
2024/03/25 02:28:54;;;;;;;12.02;10.85;;;;;;;31.21;82.14;101144.22;5038577;28;66584;-30
2024/03/25 02:31:23;;;;;;;11.95;10.73;;;;;;;31.25;81.94;101129.19;5042863;28;69892;-34
2024/03/25 02:33:52;;;;;;;14.30;10.93;;;;;;;31.28;81.72;101139.59;5022961;28;66691;-31
2024/03/25 02:36:21;;;;;;;12.30;10.77;;;;;;;31.31;82.23;101136.44;5032290;28;70633;-31
2024/03/25 02:38:51;;;;;;;11.15;10.00;;;;;;;31.32;81.88;101128.09;5020838;28;66458;-30
2024/03/25 02:41:22;;;;;;;11.95;10.57;;;;;;;31.37;81.57;101135.59;5005262;28;69755;-30
2024/03/25 02:43:51;;;;;;;11.70;10.60;;;;;;;31.42;81.46;101127.66;5029593;28;65574;-31
2024/03/25 02:46:20;;;;;;;10.23;9.50;;;;;;;31.47;81.04;101135.13;5032723;28;69482;-31
2024/03/25 02:48:49;;;;;;;10.63;9.63;;;;;;;31.49;81.17;101131.16;5033862;28;65907;-30
2024/03/25 02:51:18;;;;;;;12.68;10.20;;;;;;;31.54;81.38;101125.09;5032149;28;70420;-31
2024/03/25 02:53:47;;;;;;;11.50;9.30;;;;;;;31.52;80.91;101125.28;5031678;28;66740;-30
2024/03/25 02:56:16;;;;;;;10.43;9.57;;;;;;;31.59;81.14;101123.38;5039167;28;70132;-31
2024/03/25 02:58:45;;;;;;;10.10;9.15;;;;;;;31.62;80.76;101122.09;5026523;28;66392;-34
2024/03/25 03:01:16;;;;;;;9.88;9.20;;;;;;;31.60;80.93;101114.19;5026435;28;70201;-30
2024/03/25 03:03:45;;;;;;;11.90;10.00;;;;;;;31.68;80.67;101109.53;5036612;28;66124;-30
2024/03/25 03:06:14;;;;;;;9.45;8.68;;;;;;;31.73;80.40;101118.69;5021959;28;70153;-31
2024/03/25 03:08:43;;;;;;;9.73;8.82;;;;;;;31.77;80.43;101119.06;5022113;28;65570;-31
2024/03/25 03:11:12;;;;;;;9.98;9.18;;;;;;;31.79;80.49;101111.56;5029848;28;69860;-30
2024/03/25 03:13:41;;;;;;;10.15;9.15;;;;;;;31.81;80.59;101106.72;5034658;28;65656;-31
2024/03/25 03:16:10;;;;;;;9.43;8.63;;;;;;;31.86;80.26;101111.47;5021226;28;70264;-31
2024/03/25 03:18:40;;;;;;;9.40;8.52;;;;;;;31.90;80.34;101102.69;5031021;28;65654;-35
2024/03/25 03:21:15;;;;;;;9.43;8.48;;;;;;;31.93;80.22;101107.69;5022457;28;70544;-30
2024/03/25 03:23:45;;;;;;;9.00;8.35;;;;;;;31.96;79.82;101095.56;5026925;28;65612;-30
2024/03/25 03:26:13;;;;;;;9.25;8.35;;;;;;;31.96;80.05;101090.16;5027975;28;69537;-30
2024/03/25 03:28:43;;;;;;;11.15;8.75;;;;;;;32.01;79.84;101093.84;5037692;28;66339;-30
2024/03/25 03:31:12;;;;;;;9.25;8.55;;;;;;;32.04;79.43;101093.41;5033924;28;70091;-31
2024/03/25 03:33:40;;;;;;;9.15;8.35;;;;;;;32.07;79.59;101092.13;5010993;28;65071;-30
2024/03/25 03:36:09;;;;;;;10.05;9.13;;;;;;;32.10;79.78;101091.69;5021262;28;70630;-31
2024/03/25 03:38:38;;;;;;;9.52;8.73;;;;;;;32.13;79.62;101085.81;5035358;28;66443;-30
2024/03/25 03:41:08;;;;;;;10.15;9.25;;;;;;;32.18;79.50;101082.41;5023247;28;69442;-30
2024/03/25 03:43:37;;;;;;;10.43;9.50;;;;;;;32.21;79.40;101079.25;5029303;28;66665;-31
2024/03/25 03:46:06;;;;;;;9.98;8.98;;;;;;;32.25;79.41;101077.75;5020689;28;70782;-30
2024/03/25 03:48:35;;;;;;;10.77;8.57;;;;;;;32.27;79.25;101072.94;5020134;28;66994;-30
2024/03/25 03:51:05;;;;;;;9.27;8.55;;;;;;;32.30;79.23;101068.94;5031022;28;70127;-30
2024/03/25 03:53:35;;;;;;;8.68;8.00;;;;;;;32.30;79.34;101058.91;5020515;28;65160;-33
2024/03/25 03:56:05;;;;;;;9.40;8.43;;;;;;;32.35;79.13;101064.47;5029634;28;70037;-31
2024/03/25 03:58:34;;;;;;;8.40;7.68;;;;;;;32.37;79.24;101056.91;5034019;28;66340;-34
2024/03/25 04:01:04;;;;;;;9.55;8.18;;;;;;;32.40;79.05;101059.22;5021365;28;70355;-41
2024/03/25 04:03:33;;;;;;;8.40;7.70;;;;;;;32.44;79.13;101046.00;5030718;28;65724;-34
2024/03/25 04:06:10;;;;;;;9.65;7.93;;;;;;;32.28;78.97;101018.41;5026727;28;69620;-31
2024/03/25 04:08:42;;;;;;;8.95;7.88;;;;;;;32.49;78.98;101047.00;5003521;28;66381;-31
2024/03/25 04:11:11;;;;;;;8.57;7.88;;;;;;;32.54;78.64;101040.06;5038596;28;70005;-30
2024/03/25 04:13:40;;;;;;;9.68;8.73;;;;;;;32.54;78.64;101026.47;5031830;28;66242;-32
2024/03/25 04:16:09;;;;;;;8.18;7.57;;;;;;;32.61;78.75;101032.66;5022089;28;70082;-31
2024/03/25 04:18:38;;;;;;;9.07;8.20;;;;;;;32.63;78.52;101025.94;5025424;28;65672;-31
2024/03/25 04:21:12;;;;;;;8.52;7.63;;;;;;;32.66;78.90;101019.22;5014046;28;68849;-30
2024/03/25 04:23:43;;;;;;;8.23;7.63;;;;;;;32.64;78.57;101005.03;5004366;28;66283;-30
2024/03/25 04:26:12;;;;;;;8.17;7.47;;;;;;;32.71;78.45;101008.50;5027294;28;71085;-32
2024/03/25 04:28:41;;;;;;;8.73;7.82;;;;;;;32.75;78.26;101009.69;5028759;28;66274;-31
2024/03/25 04:31:10;;;;;;;7.88;7.38;;;;;;;32.78;78.53;101011.13;5022859;28;69405;-30
2024/03/25 04:33:39;;;;;;;9.02;8.10;;;;;;;32.79;78.33;101001.91;5028996;28;66563;-31
2024/03/25 04:36:08;;;;;;;11.27;8.05;;;;;;;32.84;78.22;100996.63;5000181;28;69425;-30
2024/03/25 04:38:37;;;;;;;7.97;7.43;;;;;;;32.84;78.34;100981.13;5019741;28;66252;-31
2024/03/25 04:41:06;;;;;;;8.07;7.30;;;;;;;32.87;78.36;100983.38;5032570;28;70585;-31
2024/03/25 04:43:35;;;;;;;7.43;6.82;;;;;;;32.91;78.25;100978.34;5021052;28;66285;-31
2024/03/25 04:46:04;;;;;;;8.35;7.57;;;;;;;32.91;78.30;100968.28;5007185;28;69214;-32
2024/03/25 04:48:33;;;;;;;8.85;8.15;;;;;;;32.96;78.27;100969.47;5029240;28;66642;-34
2024/03/25 04:51:02;;;;;;;7.60;7.03;;;;;;;33.01;78.00;100961.47;5031409;28;70739;-30
2024/03/25 04:53:31;;;;;;;7.30;6.80;;;;;;;33.03;78.22;100956.66;5027839;28;66616;-30
2024/03/25 04:56:00;;;;;;;12.23;6.70;;;;;;;33.00;78.24;100954.41;5019587;28;70434;-31
2024/03/25 04:58:29;;;;;;;7.63;7.03;;;;;;;33.07;78.13;100945.09;5020679;28;66544;-32
2024/03/25 05:00:58;;;;;;;8.55;7.85;;;;;;;33.09;78.02;100942.13;5023113;28;68871;-30
2024/03/25 05:03:27;;;;;;;8.38;7.65;;;;;;;33.13;77.96;100946.88;5024974;28;66005;-31
2024/03/25 05:05:56;;;;;;;8.35;7.70;;;;;;;33.16;77.90;100942.84;5029618;28;69883;-31
2024/03/25 05:08:25;;;;;;;8.23;7.50;;;;;;;33.19;77.84;100942.38;5019087;28;66519;-31
2024/03/25 05:10:54;;;;;;;7.57;7.05;;;;;;;32.99;77.66;100903.78;5020149;28;70266;-31
2024/03/25 05:13:23;;;;;;;8.63;7.88;;;;;;;33.23;77.75;100938.13;5024505;28;66621;-31
2024/03/25 05:15:52;;;;;;;9.40;8.05;;;;;;;33.24;77.99;100928.91;5025356;28;69770;-31
2024/03/25 05:18:21;;;;;;;8.23;7.72;;;;;;;33.27;77.75;100925.72;5020708;28;67347;-31
2024/03/25 05:20:50;;;;;;;9.23;8.32;;;;;;;33.30;77.78;100919.81;5021614;28;69520;-32
2024/03/25 05:23:19;;;;;;;8.52;7.90;;;;;;;33.37;77.69;100909.63;5019958;28;66833;-31
2024/03/25 05:25:48;;;;;;;8.68;7.93;;;;;;;33.39;77.46;100903.97;5014696;28;69034;-31
2024/03/25 05:28:17;;;;;;;8.00;7.32;;;;;;;33.43;77.46;100901.59;5005042;28;66453;-31
2024/03/25 05:30:46;;;;;;;8.63;7.90;;;;;;;33.43;77.57;100890.72;5040759;28;70089;-32
2024/03/25 05:33:15;;;;;;;8.50;7.60;;;;;;;33.50;77.54;100899.59;5019153;28;66253;-30
2024/03/25 05:35:45;;;;;;;7.60;6.90;;;;;;;33.50;77.51;100888.72;5024346;28;69710;-31
2024/03/25 05:38:13;;;;;;;8.13;7.53;;;;;;;33.54;77.40;100879.03;5026502;28;66010;-31
2024/03/25 05:40:42;;;;;;;8.15;7.55;;;;;;;33.57;77.08;100876.69;5020354;28;70006;-30
2024/03/25 05:43:11;;;;;;;7.72;7.03;;;;;;;33.59;77.19;100871.00;5026949;28;65657;-33
2024/03/25 05:45:41;;;;;;;10.32;7.40;;;;;;;33.61;77.34;100878.91;5029967;28;70479;-30
2024/03/25 05:48:09;;;;;;;8.75;7.93;;;;;;;33.62;77.32;100865.06;5018180;28;66215;-31
2024/03/25 05:50:39;;;;;;;7.88;7.03;;;;;;;33.66;76.83;100865.44;5023458;28;70392;-30
2024/03/25 05:53:08;;;;;;;8.32;7.50;;;;;;;33.69;77.17;100865.78;5027735;28;65886;-33
2024/03/25 05:55:37;;;;;;;8.13;7.53;;;;;;;33.71;77.20;100857.34;5036452;28;70866;-30
2024/03/25 05:58:07;;;;;;;7.05;6.55;;;;;;;33.75;77.01;100853.09;5018460;28;66129;-31
2024/03/25 06:00:36;;;;;;;7.15;6.65;;;;;;;33.76;76.95;100850.13;5029106;28;70866;-32
2024/03/25 06:03:05;;;;;;;8.10;7.30;;;;;;;33.75;77.00;100837.59;5024720;28;66905;-30
2024/03/25 06:05:34;;;;;;;8.70;7.45;;;;;;;33.80;76.81;100845.88;5031156;28;69701;-31
2024/03/25 06:08:07;;;;;;;7.03;6.43;;;;;;;33.84;76.99;100834.50;5028747;28;66786;-31
2024/03/25 06:10:39;;;;;;;7.75;7.00;;;;;;;33.88;76.59;100835.66;5028768;28;69783;-30
2024/03/25 06:13:08;;;;;;;9.95;7.45;;;;;;;33.91;76.69;100829.75;4991839;28;65210;-32
2024/03/25 06:15:43;;;;;;;7.93;6.97;;;;;;;33.93;76.54;100824.88;5029610;28;68905;-31
2024/03/25 06:18:41;;;;;;;7.40;6.63;;;;;;;33.96;76.35;100832.56;5021779;28;65915;-31
2024/03/25 06:21:10;;;;;;;7.20;6.68;;;;;;;33.95;76.44;100818.13;5009716;28;70690;-30
2024/03/25 06:23:40;;;;;;;6.68;6.07;;;;;;;34.01;76.42;100806.25;5015486;28;66532;-32
2024/03/25 06:26:09;;;;;;;6.97;6.47;;;;;;;34.05;76.45;100806.66;5023945;28;70136;-34
2024/03/25 06:28:40;;;;;;;7.00;6.57;;;;;;;34.09;76.38;100807.81;5025240;28;66153;-34
2024/03/25 06:34:17;;;;;;;7.32;6.72;;;;;;;34.16;76.14;100794.88;5033370;28;66465;-31
2024/03/25 06:36:47;;;;;;;7.35;6.65;;;;;;;34.18;76.12;100792.72;5038409;28;70387;-32
2024/03/25 06:39:16;;;;;;;6.45;5.93;;;;;;;34.22;76.01;100788.44;5015151;28;65316;-33
2024/03/25 06:41:45;;;;;;;7.90;7.30;;;;;;;34.15;75.89;100766.00;5012734;28;69325;-30
2024/03/25 06:44:14;;;;;;;6.97;6.38;;;;;;;34.30;75.88;100779.06;5006491;28;66268;-31
2024/03/25 06:46:43;;;;;;;7.25;6.65;;;;;;;34.33;76.02;100769.56;5026069;28;70124;-31
2024/03/25 06:49:12;;;;;;;6.93;6.30;;;;;;;34.38;76.15;100766.91;5010450;28;66228;-31
2024/03/25 06:51:41;;;;;;;7.32;6.47;;;;;;;34.42;76.08;100770.81;5043976;28;70242;-31
2024/03/25 06:54:11;;;;;;;6.47;6.03;;;;;;;34.44;76.04;100763.22;5026434;28;66642;-31
2024/03/25 06:56:41;;;;;;;7.32;6.05;;;;;;;34.51;75.83;100758.41;5029770;28;70100;-31
2024/03/25 06:59:10;;;;;;;6.50;6.00;;;;;;;34.52;75.36;100754.63;5032914;28;66734;-31
2024/03/25 07:01:39;;;;;;;6.82;6.30;;;;;;;34.60;75.64;100758.84;5003608;28;69785;-30
2024/03/25 07:04:07;;;;;;;9.75;6.97;;;;;;;34.64;75.35;100755.41;5019659;28;66040;-31
2024/03/25 07:06:37;;;;;;;7.28;6.60;;;;;;;34.68;75.91;100756.53;5020702;28;69465;-30
2024/03/25 07:09:11;;;;;;;6.68;6.18;;;;;;;34.72;75.44;100756.06;5036379;28;43060;-31
2024/03/25 07:11:42;;;;;;;6.85;6.35;;;;;;;34.72;75.11;100742.44;5004744;28;69683;-30
2024/03/25 07:14:11;;;;;;;6.22;5.72;;;;;;;34.84;75.02;100754.03;5021233;28;67022;-39
2024/03/25 07:16:40;;;;;;;7.03;6.40;;;;;;;34.88;75.25;100753.31;5022941;28;70082;-32
2024/03/25 07:19:10;;;;;;;6.50;6.07;;;;;;;34.92;74.90;100745.44;5026333;28;67007;-31
2024/03/25 07:21:39;;;;;;;6.85;6.25;;;;;;;34.96;75.38;100741.13;5029084;28;69092;-31
2024/03/25 07:24:08;;;;;;;6.30;5.90;;;;;;;35.01;75.09;100741.19;5028521;28;65515;-31
2024/03/25 07:26:37;;;;;;;7.53;5.60;;;;;;;35.06;75.20;100738.56;5017679;28;70296;-30
2024/03/25 07:29:05;;;;;;;7.28;5.90;;;;;;;35.12;75.10;100731.28;5019170;28;66121;-30
2024/03/25 07:31:34;;;;;;;7.00;6.22;;;;;;;35.19;75.04;100736.53;5023379;28;70265;-32
2024/03/25 07:34:03;;;;;;;10.80;6.10;;;;;;;35.24;74.94;100737.44;5031073;28;66510;-30
2024/03/25 07:36:35;;;;;;;6.47;5.90;;;;;;;35.26;74.87;100726.28;5032383;28;70952;-32
2024/03/25 07:39:05;;;;;;;;;;;;;;;35.25;74.32;100741.00;5014318;28;66378;-31
2024/03/25 07:41:34;;;;;;;6.40;5.75;;;;;;;35.42;74.60;100736.31;5012304;28;70846;-30
2024/03/25 07:44:04;;;;;;;6.20;5.70;;;;;;;35.47;74.10;100739.09;5050730;28;66050;-31
2024/03/25 07:46:33;;;;;;;7.28;6.57;;;;;;;35.52;73.91;100741.88;5018731;28;70480;-30
2024/03/25 07:49:02;;;;;;;6.25;4.75;;;;;;;35.57;74.17;100725.56;5020525;28;66304;-32
2024/03/25 07:51:31;;;;;;;5.75;5.35;;;;;;;35.60;73.70;100726.16;5002036;28;70696;-30
2024/03/25 07:54:00;;;;;;;6.40;5.78;;;;;;;35.68;74.25;100734.69;5021936;28;66627;-33
2024/03/25 07:56:30;;;;;;;5.45;5.10;;;;;;;35.74;73.40;100724.66;5029311;28;69709;-34
2024/03/25 07:59:02;;;;;;;5.22;4.90;;;;;;;35.78;73.30;100718.44;5017171;28;67083;-31
2024/03/25 08:01:31;;;;;;;5.90;5.40;;;;;;;35.86;73.36;100725.34;5046520;28;69056;-32
2024/03/25 08:03:59;;;;;;;7.07;5.30;;;;;;;35.92;73.34;100716.13;5054158;28;66021;-31
2024/03/25 08:06:28;;;;;;;5.80;5.30;;;;;;;35.97;73.22;100716.16;5053499;28;70115;-31
2024/03/25 08:08:57;;;;;;;5.47;5.05;;;;;;;36.02;73.26;100718.94;5035149;28;66287;-31
2024/03/25 08:11:27;;;;;;;5.85;5.40;;;;;;;36.09;72.97;100717.94;5039259;28;69779;-31
2024/03/25 08:13:56;;;;;;;5.85;5.35;;;;;;;36.12;73.16;100711.94;5016240;28;66225;-30
2024/03/25 08:16:25;;;;;;;5.15;4.75;;;;;;;36.16;73.29;100711.19;5026099;28;69622;-31
2024/03/25 08:18:54;;;;;;;5.22;4.72;;;;;;;36.26;72.68;100712.34;5027460;28;65905;-31
2024/03/25 08:21:23;;;;;;;5.80;5.30;;;;;;;36.31;72.42;100710.47;5045016;28;70674;-32
2024/03/25 08:23:52;;;;;;;5.57;5.07;;;;;;;36.37;72.98;100708.59;5007171;28;64675;-31
2024/03/25 08:26:21;;;;;;;5.30;4.90;;;;;;;36.44;72.48;100710.03;5018235;28;70100;-31
2024/03/25 08:28:50;;;;;;;5.50;5.05;;;;;;;36.45;72.62;100700.72;5025709;28;65749;-33
2024/03/25 08:31:19;;;;;;;5.60;5.20;;;;;;;36.54;72.63;100708.47;5017699;28;69966;-31
2024/03/25 08:33:48;;;;;;;4.63;4.30;;;;;;;36.60;72.26;100707.41;5025378;28;66583;-30
2024/03/25 08:36:20;;;;;;;5.10;4.65;;;;;;;36.67;72.56;100713.47;5016965;28;69243;-32
2024/03/25 08:38:49;;;;;;;6.10;5.32;;;;;;;36.68;72.27;100698.72;5039240;28;65331;-31
2024/03/25 08:41:50;;;;;;;5.38;5.07;;;;;;;36.70;70.66;100701.19;5002870;28;69803;-31
2024/03/25 08:44:22;;;;;;;7.68;5.20;;;;;;;36.81;72.19;100698.25;5019075;28;65538;-31
2024/03/25 08:46:51;;;;;;;5.03;4.70;;;;;;;36.88;71.58;100698.81;5019888;28;70312;-31
2024/03/25 08:49:21;;;;;;;6.15;5.55;;;;;;;36.94;71.90;100687.91;5030855;28;66287;-31
2024/03/25 08:51:50;;;;;;;5.13;4.75;;;;;;;36.99;71.60;100694.22;5027913;28;69620;-32
2024/03/25 08:54:19;;;;;;;5.35;4.93;;;;;;;37.05;71.59;100695.09;5029741;28;66941;-31
2024/03/25 08:56:49;;;;;;;5.45;4.97;;;;;;;37.10;71.49;100700.59;5039844;28;69995;-32
2024/03/25 08:59:17;;;;;;;4.97;4.57;;;;;;;37.16;71.52;100699.50;5032161;28;66025;-31
2024/03/25 09:01:47;;;;;;;5.38;4.97;;;;;;;37.19;71.10;100690.75;5018842;28;69506;-31
2024/03/25 09:04:16;;;;;;;5.43;5.03;;;;;;;37.24;70.81;100699.00;5024676;28;66067;-30
2024/03/25 09:06:45;;;;;;;4.85;4.45;;;;;;;37.26;71.44;100699.56;5029804;28;70258;-31
2024/03/25 09:12:05;;;;;;;5.65;4.72;;;;;;;37.40;70.92;100701.78;5030970;28;70156;-31
2024/03/25 09:14:34;;;;;;;26.95;4.63;;;;;;;37.26;69.96;100685.88;5026300;28;66432;-32
2024/03/25 09:17:03;;;;;;;8.35;4.35;;;;;;;37.49;70.74;100708.41;5018823;28;69810;-32
2024/03/25 09:19:31;;;;;;;9.73;5.20;;;;;;;37.55;71.00;100712.78;5019175;28;66358;-31
2024/03/25 09:22:00;;;;;;;6.50;5.35;;;;;;;37.58;70.29;100695.81;5017271;28;70210;-31
2024/03/25 09:24:29;;;;;;;6.63;5.20;;;;;;;37.61;70.37;100695.28;5017280;28;65311;-34
2024/03/25 09:26:59;;;;;;;8.27;5.30;;;;;;;37.65;70.41;100701.88;5017232;28;69919;-32
2024/03/25 09:29:28;;;;;;;5.30;4.90;;;;;;;37.67;70.63;100694.22;5021431;28;66586;-32
2024/03/25 09:31:57;;;;;;;7.35;4.82;;;;;;;37.68;70.66;100695.03;5041364;28;70551;-31
2024/03/25 09:34:25;;;;;;;7.57;5.35;;;;;;;37.73;70.69;100708.72;5020431;28;65686;-30
2024/03/25 09:36:55;;;;;;;11.00;5.60;;;;;;;37.74;70.17;100705.69;5038412;28;70530;-31
2024/03/25 09:39:24;;;;;;;5.80;5.30;;;;;;;37.73;70.22;100704.06;5022468;28;65525;-32
2024/03/25 09:41:56;;;;;;;6.30;5.65;;;;;;;37.72;69.98;100701.59;5022392;28;70563;-32
2024/03/25 09:44:26;;;;;;;6.38;5.13;;;;;;;37.74;70.35;100705.69;5044970;28;66316;-32
2024/03/25 09:47:01;;;;;;;5.65;4.88;;;;;;;37.76;70.55;100706.25;5023036;28;70179;-31
2024/03/25 09:49:32;;;;;;;9.23;5.05;;;;;;;37.70;70.77;100696.41;5026076;28;65615;-31
2024/03/25 09:52:02;;;;;;;8.60;5.20;;;;;;;37.82;70.39;100707.09;5043515;28;70145;-32
2024/03/25 09:54:31;;;;;;;6.00;5.40;;;;;;;37.77;70.84;100707.06;5025830;28;66630;-31
2024/03/25 09:57:03;;;;;;;6.90;6.20;;;;;;;37.82;70.58;100711.75;5022881;28;70632;-34
2024/03/25 09:59:33;;;;;;;6.15;5.63;;;;;;;37.65;70.94;100684.63;5031692;28;65806;-31
2024/03/25 10:02:03;;;;;;;10.38;4.93;;;;;;;37.81;70.99;100715.56;5035455;28;69669;-31
2024/03/25 10:04:33;;;;;;;7.47;5.38;;;;;;;37.87;71.10;100717.22;5025525;28;66104;-31
2024/03/25 10:07:03;;;;;;;7.75;6.20;;;;;;;37.83;70.86;100724.34;5022136;28;70562;-31
2024/03/25 10:09:32;;;;;;;;;;;;;;;37.86;71.21;100723.78;5037677;28;66530;-32
2024/03/25 10:12:01;;;;;;;9.20;5.88;;;;;;;37.84;71.21;100720.53;5033694;28;69330;-31
2024/03/25 10:14:30;;;;;;;8.88;4.82;;;;;;;37.81;71.68;100726.50;5024550;28;66220;-31
2024/03/25 10:16:59;;;;;;;8.02;5.45;;;;;;;37.67;71.62;100732.53;5023250;28;69221;-32
2024/03/25 10:19:28;;;;;;;8.13;5.22;;;;;;;37.73;72.15;100731.44;5025459;28;66829;-32
2024/03/25 10:22:08;;;;;;;7.43;5.25;;;;;;;37.66;72.60;100746.47;5009861;28;69088;-31
2024/03/25 10:24:45;;;;;;;10.77;5.53;;;;;;;37.34;72.66;100722.84;5009775;28;67460;-32
2024/03/25 10:27:23;;;;;;;12.45;5.57;;;;;;;37.41;72.70;100749.94;5036805;28;70148;-30
2024/03/25 10:29:58;;;;;;;7.60;5.50;;;;;;;37.43;72.36;100747.75;5025679;28;66939;-31
2024/03/25 10:32:28;;;;;;;10.30;5.47;;;;;;;37.42;72.89;100757.03;5009108;28;70037;-31
2024/03/25 10:35:00;;;;;;;11.10;6.05;;;;;;;37.39;71.93;100763.03;5008530;28;66681;-32
2024/03/25 10:37:29;;;;;;;17.53;5.77;;;;;;;37.27;71.68;100772.31;5025479;28;70095;-32
2024/03/25 10:40:03;;;;;;;10.30;6.32;;;;;;;37.27;71.97;100776.97;5028675;28;66692;-31
2024/03/25 10:42:34;;;;;;;10.82;6.30;;;;;;;36.81;72.59;100703.72;5017705;28;69927;-30
2024/03/25 10:45:04;;;;;;;8.00;6.70;;;;;;;37.06;72.85;100765.13;5025422;28;66041;-33
2024/03/25 10:47:33;;;;;;;13.38;6.75;;;;;;;37.03;72.88;100768.38;5000049;28;70076;-31
2024/03/25 10:50:10;;;;;;;12.20;7.22;;;;;;;36.96;72.92;100781.41;5023048;28;66592;-30
2024/03/25 10:52:45;;;;;;;;;;;;;;;36.90;73.22;100783.31;5025734;28;69917;-30
2024/03/25 10:55:14;;;;;;;9.85;6.38;;;;;;;36.95;72.74;100790.72;5035811;28;66352;-30
2024/03/25 10:57:43;;;;;;;15.88;6.65;;;;;;;36.89;72.91;100798.88;5031681;28;70221;-32
2024/03/25 11:00:15;;;;;;;14.02;7.13;;;;;;;36.89;73.70;100798.88;5039459;28;66503;-31
2024/03/25 11:02:45;;;;;;;12.27;6.97;;;;;;;36.86;73.49;100806.78;5026788;28;70190;-31
2024/03/25 11:05:15;;;;;;;14.90;7.40;;;;;;;36.83;73.52;100802.69;5028882;28;65728;-33
2024/03/25 11:07:44;;;;;;;14.23;7.00;;;;;;;36.81;74.06;100807.56;5027075;28;69768;-31
2024/03/25 11:10:13;;;;;;;11.75;7.80;;;;;;;36.76;73.96;100813.00;5039927;28;65268;-31
2024/03/25 11:12:45;;;;;;;14.52;7.85;;;;;;;36.65;75.21;100808.56;4976281;28;69450;-31
2024/03/25 11:15:15;;;;;;;21.05;7.90;;;;;;;36.69;74.65;100809.66;5024565;28;68129;-32
2024/03/25 11:17:50;;;;;;;13.02;7.85;;;;;;;36.66;74.41;100815.66;5030629;28;69469;-33
2024/03/25 11:20:21;;;;;;;15.05;8.35;;;;;;;36.62;74.44;100811.81;5009285;28;65213;-33
2024/03/25 11:22:53;;;;;;;19.08;8.15;;;;;;;36.58;75.03;100818.88;5032521;28;69670;-31
2024/03/25 11:25:22;;;;;;;14.02;8.38;;;;;;;36.54;74.94;100824.03;5025969;28;66521;-35
2024/03/25 11:27:51;;;;;;;12.48;7.43;;;;;;;36.49;74.93;100825.88;5029719;28;70830;-31
2024/03/25 11:30:20;;;;;;;10.25;7.00;;;;;;;36.47;74.41;100826.16;5029244;28;65678;-32
2024/03/25 11:32:54;;;;;;;14.80;7.60;;;;;;;36.40;75.63;100829.06;5039661;28;70037;-32
2024/03/25 11:35:23;;;;;;;12.07;7.45;;;;;;;36.36;74.63;100827.97;5033622;28;66540;-34
2024/03/25 11:37:52;;;;;;;10.38;6.80;;;;;;;36.32;74.59;100826.81;5009813;28;69697;-32
2024/03/25 11:40:21;;;;;;;8.02;6.75;;;;;;;36.22;75.92;100816.63;5024874;28;65719;-32